Time;durP1;ratioP1;P1;durP2;ratioP2;P2;SDS_P1;SDS_P2;PMS_P1;PMS_P2;Temp;Humidity;BMP_temperature;BMP_pressure;BME280_temperature;BME280_humidity;BME280_pressure;Samples;Min_cycle;Max_cycle;Signal;HPM_P1;HPM_P2
2023/09/10 00:00:39;;;;;;;2.05;1.77;;;20.40;99.90;;;;;;5030819;28;20030;-66
2023/09/10 00:03:05;;;;;;;2.27;1.70;;;20.30;99.90;;;;;;5033296;28;20033;-73
2023/09/10 00:05:31;;;;;;;1.67;1.57;;;20.30;99.90;;;;;;5047302;28;20104;-66
2023/09/10 00:07:57;;;;;;;;;;;20.20;99.90;;;;;;5034646;28;20088;-66
2023/09/10 00:10:23;;;;;;;0.98;0.88;;;20.20;99.90;;;;;;5036150;28;19915;-66
2023/09/10 00:12:49;;;;;;;1.47;1.37;;;20.20;99.90;;;;;;5043166;28;20029;-66
2023/09/10 00:15:14;;;;;;;1.27;1.17;;;20.20;99.90;;;;;;5044744;28;20025;-66
2023/09/10 00:17:40;;;;;;;1.40;1.40;;;20.20;99.90;;;;;;5048929;28;20075;-66
2023/09/10 00:20:07;;;;;;;4.00;3.47;;;20.20;99.90;;;;;;5038011;28;20286;-66
2023/09/10 00:22:34;;;;;;;3.35;2.58;;;20.20;99.90;;;;;;5039849;28;20021;-66
2023/09/10 00:24:59;;;;;;;;;;;20.20;99.90;;;;;;5039764;28;20061;-66
2023/09/10 00:27:25;;;;;;;3.03;1.35;;;20.20;99.90;;;;;;5035203;28;19968;-66
2023/09/10 00:29:51;;;;;;;1.63;1.53;;;20.20;99.90;;;;;;5036183;28;20083;-66
2023/09/10 00:32:16;;;;;;;14.70;3.53;;;20.20;99.90;;;;;;5039768;28;20026;-66
2023/09/10 00:34:42;;;;;;;10.80;2.23;;;20.20;99.90;;;;;;5039494;28;20344;-66
2023/09/10 00:37:08;;;;;;;3.30;1.83;;;20.20;99.90;;;;;;5041131;28;20116;-75
2023/09/10 00:39:33;;;;;;;3.43;1.87;;;20.10;99.90;;;;;;5035935;28;20022;-66
2023/09/10 00:41:59;;;;;;;3.60;2.80;;;20.20;99.90;;;;;;5050909;28;20022;-66
2023/09/10 00:44:26;;;;;;;2.27;2.03;;;20.20;99.90;;;;;;5039899;28;20025;-73
2023/09/10 00:46:51;;;;;;;;;;;20.20;99.90;;;;;;5057330;28;20654;-66
2023/09/10 00:49:17;;;;;;;2.63;2.42;;;20.20;99.90;;;;;;5057613;28;19904;-66
2023/09/10 00:51:45;;;;;;;4.65;2.58;;;20.20;99.90;;;;;;5043069;28;20111;-66
2023/09/10 00:54:10;;;;;;;7.45;3.05;;;20.20;99.90;;;;;;5039907;28;20025;-74
2023/09/10 00:56:36;;;;;;;1.47;1.37;;;20.20;99.90;;;;;;5037751;28;20040;-66
2023/09/10 00:59:02;;;;;;;1.60;1.50;;;20.20;99.90;;;;;;5040031;28;20267;-66
2023/09/10 01:01:29;;;;;;;3.63;2.20;;;20.20;99.90;;;;;;5036984;28;20032;-74
2023/09/10 01:03:55;;;;;;;2.17;1.80;;;20.10;99.90;;;;;;5039000;28;20035;-66
2023/09/10 01:06:22;;;;;;;1.55;1.45;;;20.10;99.90;;;;;;5036556;28;20033;-66
2023/09/10 01:08:48;;;;;;;1.33;1.23;;;20.00;99.90;;;;;;5044041;28;20040;-65
2023/09/10 01:11:30;;;;;;;1.27;1.17;;;20.00;99.90;;;;;;5041904;28;20096;-66
2023/09/10 01:14:10;;;;;;;0.75;0.75;;;20.00;99.90;;;;;;5042581;28;20022;-66
2023/09/10 01:17:00;;;;;;;2.10;1.13;;;19.90;99.90;;;;;;5048481;28;20040;-66
2023/09/10 01:19:50;;;;;;;0.82;0.80;;;19.80;99.90;;;;;;5036386;28;20029;-66
2023/09/10 01:22:21;;;;;;;1.65;0.75;;;19.70;99.90;;;;;;5049839;28;20025;-66
2023/09/10 01:24:51;;;;;;;2.47;1.50;;;19.60;99.90;;;;;;5042483;28;20029;-66
2023/09/10 01:27:18;;;;;;;1.02;0.52;;;19.60;99.90;;;;;;5035550;28;20302;-66
2023/09/10 01:29:44;;;;;;;1.27;1.15;;;19.50;99.90;;;;;;5034347;28;20029;-66
2023/09/10 01:32:48;;;;;;;1.02;0.90;;;19.50;99.90;;;;;;5036249;28;20344;-65
2023/09/10 01:35:35;;;;;;;0.60;0.60;;;19.50;99.90;;;;;;5028795;28;20029;-67
2023/09/10 01:38:12;;;;;;;1.35;0.95;;;19.50;99.90;;;;;;5030366;28;20038;-66
2023/09/10 01:41:03;;;;;;;0.55;0.55;;;19.50;99.90;;;;;;5034768;28;20060;-66
2023/09/10 01:43:31;;;;;;;1.05;0.95;;;19.50;99.90;;;;;;5031896;28;20117;-66
2023/09/10 01:45:56;;;;;;;0.85;0.68;;;19.50;99.90;;;;;;5032912;28;20033;-66
2023/09/10 01:48:26;;;;;;;1.33;1.23;;;19.50;99.90;;;;;;5035169;28;20026;-66
2023/09/10 01:50:53;;;;;;;3.80;1.63;;;19.50;99.90;;;;;;5028434;28;20052;-66
2023/09/10 01:53:18;;;;;;;;;;;19.40;99.90;;;;;;5035618;28;20420;-66
2023/09/10 01:55:45;;;;;;;1.77;1.08;;;19.40;99.90;;;;;;5035812;28;19913;-66
2023/09/10 01:58:13;;;;;;;1.35;1.25;;;19.40;99.90;;;;;;5038828;28;20029;-74
2023/09/10 02:00:39;;;;;;;2.72;1.83;;;19.40;99.90;;;;;;5025737;28;20434;-65
2023/09/10 02:03:05;;;;;;;2.08;1.88;;;19.40;99.90;;;;;;5032866;28;20022;-66
2023/09/10 02:05:31;;;;;;;3.97;0.68;;;19.50;99.90;;;;;;5034260;28;20450;-66
2023/09/10 02:07:56;;;;;;;3.70;1.93;;;19.50;99.90;;;;;;5041140;28;20033;-66
2023/09/10 02:10:23;;;;;;;5.37;2.43;;;19.50;99.90;;;;;;5040162;28;20384;-66
2023/09/10 02:12:49;;;;;;;;;;;19.40;99.90;;;;;;5038492;28;20036;-66
2023/09/10 02:15:17;;;;;;;1.33;1.23;;;19.40;99.90;;;;;;5039922;28;20374;-66
2023/09/10 02:17:42;;;;;;;2.45;1.50;;;19.40;99.90;;;;;;5034751;28;20034;-66
2023/09/10 02:20:09;;;;;;;1.07;0.73;;;19.40;99.90;;;;;;5035189;28;20478;-74
2023/09/10 02:22:37;;;;;;;2.45;1.52;;;19.40;99.90;;;;;;5040577;28;20406;-66
2023/09/10 02:25:03;;;;;;;1.30;1.20;;;19.40;99.90;;;;;;5038761;28;20416;-66
2023/09/10 02:27:31;;;;;;;2.08;1.52;;;19.50;99.90;;;;;;5037257;28;20124;-66
2023/09/10 02:29:57;;;;;;;5.90;2.03;;;19.50;99.90;;;;;;5040743;28;20025;-66
2023/09/10 02:32:23;;;;;;;2.10;1.45;;;19.50;99.90;;;;;;5037564;28;20493;-66
2023/09/10 02:34:51;;;;;;;20.70;2.33;;;19.50;99.90;;;;;;5038064;28;20034;-66
2023/09/10 02:37:17;;;;;;;2.63;2.42;;;19.60;99.90;;;;;;5034262;28;20057;-66
2023/09/10 02:39:43;;;;;;;1.38;1.08;;;19.50;99.90;;;;;;5033966;28;20072;-66
2023/09/10 02:42:09;;;;;;;2.42;1.98;;;19.50;99.90;;;;;;5034118;28;20033;-75
2023/09/10 02:44:35;;;;;;;2.83;1.47;;;19.50;99.90;;;;;;5041593;28;20082;-66
2023/09/10 02:47:01;;;;;;;1.50;1.07;;;19.50;99.90;;;;;;5034679;28;20364;-65
2023/09/10 02:49:27;;;;;;;1.30;1.23;;;19.50;99.90;;;;;;5034294;28;20045;-66
2023/09/10 02:51:53;;;;;;;1.03;1.03;;;19.50;99.90;;;;;;5024955;28;20049;-66
2023/09/10 02:54:19;;;;;;;2.97;1.63;;;19.50;99.90;;;;;;5030281;28;20443;-66
2023/09/10 02:56:45;;;;;;;3.30;2.83;;;19.50;99.90;;;;;;5034265;28;20069;-75
2023/09/10 02:59:20;;;;;;;1.77;1.67;;;19.50;99.90;;;;;;5034068;28;20095;-66
2023/09/10 03:01:46;;;;;;;2.35;1.65;;;19.40;99.90;;;;;;5034392;28;20030;-65
2023/09/10 03:04:11;;;;;;;3.45;1.77;;;19.40;99.90;;;;;;5033213;28;20025;-75
2023/09/10 03:06:37;;;;;;;1.90;1.47;;;19.40;99.90;;;;;;5033047;28;20091;-66
2023/09/10 03:09:03;;;;;;;3.77;0.93;;;19.40;99.90;;;;;;5034400;28;20056;-66
2023/09/10 03:11:31;;;;;;;3.43;1.97;;;19.40;99.90;;;;;;5029872;28;20411;-66
2023/09/10 03:13:56;;;;;;;3.20;2.15;;;19.40;99.90;;;;;;5032457;28;20441;-66
2023/09/10 03:16:24;;;;;;;1.43;1.33;;;19.40;99.90;;;;;;5032229;28;20072;-66
2023/09/10 03:18:50;;;;;;;3.75;1.77;;;19.40;99.90;;;;;;5025154;28;20393;-66
2023/09/10 03:21:16;;;;;;;1.17;0.93;;;19.30;99.90;;;;;;5032997;28;20108;-66
2023/09/10 03:23:41;;;;;;;4.13;2.53;;;19.30;99.90;;;;;;5033833;28;20076;-66
2023/09/10 03:26:11;;;;;;;1.30;1.20;;;19.30;99.90;;;;;;5037542;28;20115;-66
2023/09/10 03:28:37;;;;;;;2.58;1.52;;;19.30;99.90;;;;;;5029693;28;20360;-66
2023/09/10 03:31:03;;;;;;;2.50;2.30;;;19.20;99.90;;;;;;5034650;28;20079;-67
2023/09/10 03:33:28;;;;;;;1.83;1.52;;;19.30;99.90;;;;;;5046474;28;20471;-66
2023/09/10 03:35:54;;;;;;;2.10;1.90;;;19.20;99.90;;;;;;5025585;28;20040;-66
2023/09/10 03:38:20;;;;;;;5.93;2.20;;;19.20;99.90;;;;;;5036351;28;20282;-66
2023/09/10 03:40:46;;;;;;;3.73;1.97;;;19.30;99.90;;;;;;5037039;28;20017;-66
2023/09/10 03:43:11;;;;;;;7.77;1.43;;;19.20;99.90;;;;;;5034708;28;20526;-75
2023/09/10 03:45:37;;;;;;;1.63;1.57;;;19.20;99.90;;;;;;5041778;28;20044;-66
2023/09/10 03:48:03;;;;;;;1.70;1.60;;;19.20;99.90;;;;;;5028232;28;20029;-67
2023/09/10 03:50:29;;;;;;;1.33;1.23;;;19.20;99.90;;;;;;5034028;28;20036;-66
2023/09/10 03:52:54;;;;;;;4.03;1.67;;;19.20;99.90;;;;;;5033250;28;20148;-65
2023/09/10 03:55:20;;;;;;;1.90;1.63;;;19.20;99.90;;;;;;5033315;28;20029;-66
2023/09/10 03:57:46;;;;;;;1.23;1.13;;;19.20;99.90;;;;;;5032737;28;20032;-66
2023/09/10 04:00:12;;;;;;;2.63;2.43;;;19.20;99.90;;;;;;5033590;28;20301;-74
2023/09/10 04:02:38;;;;;;;1.58;1.48;;;19.20;99.90;;;;;;5033255;28;20428;-66
2023/09/10 04:05:05;;;;;;;0.85;0.85;;;19.20;99.90;;;;;;5038821;28;20036;-73
2023/09/10 04:07:30;;;;;;;1.33;1.23;;;19.20;99.90;;;;;;5041258;28;20033;-66
2023/09/10 04:09:57;;;;;;;3.60;2.10;;;19.20;99.90;;;;;;5037789;28;20312;-66
2023/09/10 04:12:22;;;;;;;3.20;1.85;;;19.20;99.90;;;;;;5032027;28;20428;-66
2023/09/10 04:14:48;;;;;;;3.23;1.97;;;19.20;99.90;;;;;;5033398;28;20045;-66
2023/09/10 04:17:17;;;;;;;2.80;1.13;;;19.20;99.90;;;;;;5037113;28;20021;-66
2023/09/10 04:19:44;;;;;;;4.47;2.28;;;19.20;99.90;;;;;;5037846;28;20025;-66
2023/09/10 04:22:09;;;;;;;2.50;1.67;;;19.20;99.90;;;;;;5046348;28;20104;-75
2023/09/10 04:24:35;;;;;;;2.57;1.47;;;19.20;99.90;;;;;;5029070;28;20104;-66
2023/09/10 04:27:02;;;;;;;2.77;1.97;;;19.20;99.90;;;;;;5030575;28;20283;-66
2023/09/10 04:29:27;;;;;;;;;;;19.20;99.90;;;;;;5024610;28;20025;-66
2023/09/10 04:31:53;;;;;;;7.97;1.90;;;19.20;99.90;;;;;;5018309;28;20252;-67
2023/09/10 04:34:19;;;;;;;2.07;1.87;;;19.10;99.90;;;;;;5030094;28;20034;-66
2023/09/10 04:36:46;;;;;;;5.30;2.97;;;19.10;99.90;;;;;;5026728;28;20468;-66
2023/09/10 04:39:12;;;;;;;3.90;1.67;;;19.10;99.90;;;;;;5026418;28;20044;-75
2023/09/10 04:41:38;;;;;;;5.23;2.40;;;19.10;99.90;;;;;;5026116;28;20029;-66
2023/09/10 04:44:04;;;;;;;1.20;1.10;;;19.10;99.90;;;;;;5028671;28;20093;-66
2023/09/10 04:46:29;;;;;;;1.92;1.40;;;19.10;99.90;;;;;;5023880;28;20034;-66
2023/09/10 04:48:57;;;;;;;1.83;1.63;;;19.10;99.90;;;;;;5031433;28;20083;-75
2023/09/10 04:51:23;;;;;;;1.85;1.60;;;19.00;99.90;;;;;;5035629;28;20317;-66
2023/09/10 04:53:49;;;;;;;8.10;3.30;;;19.00;99.90;;;;;;5032802;28;20090;-66
2023/09/10 04:56:14;;;;;;;5.60;2.67;;;18.90;99.90;;;;;;5032919;28;20042;-67
2023/09/10 04:58:40;;;;;;;1.63;1.43;;;19.00;99.90;;;;;;5022301;28;20040;-66
2023/09/10 05:01:06;;;;;;;4.87;3.00;;;19.00;99.90;;;;;;5023692;28;20022;-66
2023/09/10 05:03:32;;;;;;;2.65;1.70;;;19.00;99.90;;;;;;5031543;28;20076;-66
2023/09/10 05:06:05;;;;;;;3.17;0.90;;;19.00;99.90;;;;;;5031139;28;20825;-75
2023/09/10 05:08:31;;;;;;;4.18;1.90;;;19.00;99.90;;;;;;5029899;28;20033;-66
2023/09/10 05:10:57;;;;;;;1.52;1.17;;;19.00;99.90;;;;;;5037240;28;20025;-66
2023/09/10 05:13:22;;;;;;;2.67;1.37;;;19.00;99.90;;;;;;5036085;28;20048;-66
2023/09/10 05:15:48;;;;;;;1.20;1.10;;;19.00;99.90;;;;;;5033470;28;20031;-66
2023/09/10 05:18:15;;;;;;;4.07;1.85;;;19.00;99.90;;;;;;5034685;28;20025;-65
2023/09/10 05:20:41;;;;;;;4.93;1.88;;;19.00;99.90;;;;;;5040589;28;20041;-66
2023/09/10 05:23:06;;;;;;;9.70;3.10;;;19.00;99.90;;;;;;5035117;28;20034;-66
2023/09/10 05:25:36;;;;;;;5.50;2.47;;;19.00;99.90;;;;;;5033218;28;20058;-66
2023/09/10 05:28:03;;;;;;;1.65;1.52;;;19.10;99.90;;;;;;5025545;28;20060;-66
2023/09/10 05:30:29;;;;;;;7.32;2.95;;;19.10;99.90;;;;;;5029593;28;20073;-66
2023/09/10 05:32:57;;;;;;;2.80;1.55;;;19.10;99.90;;;;;;5040283;28;20040;-66
2023/09/10 05:35:23;;;;;;;3.90;1.83;;;19.10;99.90;;;;;;5023868;28;20168;-65
2023/09/10 05:37:48;;;;;;;1.60;1.50;;;19.10;99.90;;;;;;5038399;28;20025;-66
2023/09/10 05:40:14;;;;;;;3.47;1.33;;;19.10;99.90;;;;;;5036821;28;20347;-67
2023/09/10 05:42:40;;;;;;;1.63;1.53;;;19.10;99.90;;;;;;5025771;28;20056;-66
2023/09/10 05:45:06;;;;;;;2.97;1.93;;;19.10;99.90;;;;;;5039772;28;20033;-65
2023/09/10 05:47:32;;;;;;;7.45;1.70;;;19.20;99.90;;;;;;5033670;28;20328;-66
2023/09/10 05:50:01;;;;;;;1.47;0.93;;;19.20;99.90;;;;;;5035670;28;20037;-66
2023/09/10 05:52:26;;;;;;;3.92;2.38;;;19.20;99.90;;;;;;5032089;28;20060;-66
2023/09/10 05:54:52;;;;;;;1.70;1.00;;;19.30;99.90;;;;;;5038670;28;20056;-66
2023/09/10 05:57:18;;;;;;;2.07;1.20;;;19.30;99.90;;;;;;5021567;28;20436;-67
2023/09/10 05:59:43;;;;;;;1.63;0.73;;;19.30;99.90;;;;;;5021408;28;20034;-66
2023/09/10 06:02:09;;;;;;;10.33;1.67;;;19.40;99.90;;;;;;5038036;28;20040;-66
2023/09/10 06:04:35;;;;;;;3.30;2.10;;;19.40;99.90;;;;;;5032389;28;20108;-66
2023/09/10 06:07:04;;;;;;;3.77;1.70;;;19.40;99.90;;;;;;5026189;28;20029;-66
2023/09/10 06:09:31;;;;;;;1.30;1.20;;;19.50;99.90;;;;;;5031616;28;20025;-66
2023/09/10 06:11:57;;;;;;;8.15;2.03;;;19.50;99.90;;;;;;5029643;28;20030;-66
2023/09/10 06:14:23;;;;;;;;;;;19.60;99.90;;;;;;5037831;28;20115;-67
2023/09/10 06:16:50;;;;;;;3.08;2.22;;;19.60;99.90;;;;;;5032458;28;19948;-66
2023/09/10 06:19:15;;;;;;;;;;;19.70;99.90;;;;;;5042334;28;20428;-66
2023/09/10 06:21:42;;;;;;;2.10;1.33;;;19.70;99.90;;;;;;5022584;28;19916;-66
2023/09/10 06:24:07;;;;;;;1.83;1.73;;;19.80;99.90;;;;;;5025576;28;20021;-67
2023/09/10 06:26:34;;;;;;;2.87;1.80;;;19.80;99.90;;;;;;5029991;28;20076;-66
2023/09/10 06:29:00;;;;;;;1.88;1.10;;;19.90;99.90;;;;;;5037652;28;20344;-66
2023/09/10 06:31:26;;;;;;;2.08;1.42;;;19.90;99.90;;;;;;5025692;28;20040;-66
2023/09/10 06:33:54;;;;;;;2.90;0.80;;;20.00;99.90;;;;;;5028465;28;20120;-66
2023/09/10 06:36:20;;;;;;;1.70;1.35;;;20.10;99.90;;;;;;5032125;28;20029;-66
2023/09/10 06:38:47;;;;;;;2.22;1.55;;;20.20;99.90;;;;;;5029214;28;20399;-66
2023/09/10 06:41:15;;;;;;;4.00;1.52;;;20.20;99.90;;;;;;5034319;28;20028;-66
2023/09/10 06:43:41;;;;;;;1.65;1.30;;;20.30;99.90;;;;;;5037662;28;20037;-66
2023/09/10 06:46:07;;;;;;;2.78;2.22;;;20.40;99.90;;;;;;5025905;28;20029;-67
2023/09/10 06:48:32;;;;;;;5.50;1.27;;;20.50;99.90;;;;;;5025503;28;20037;-69
2023/09/10 06:51:00;;;;;;;2.70;2.27;;;20.60;99.90;;;;;;5019579;28;20034;-66
2023/09/10 06:53:27;;;;;;;1.33;1.20;;;20.60;99.90;;;;;;5031525;28;20029;-66
2023/09/10 06:55:54;;;;;;;1.48;1.02;;;20.70;99.90;;;;;;5028922;28;20069;-66
2023/09/10 06:58:20;;;;;;;3.55;1.92;;;20.80;99.90;;;;;;5025670;28;20030;-66
2023/09/10 07:00:45;;;;;;;0.65;0.65;;;20.90;99.90;;;;;;5031626;28;20040;-66
2023/09/10 07:03:13;;;;;;;6.93;1.60;;;21.00;99.90;;;;;;5030478;28;20324;-66
2023/09/10 07:05:40;;;;;;;1.88;1.77;;;21.10;99.90;;;;;;5024648;28;20275;-67
2023/09/10 07:08:06;;;;;;;4.25;2.15;;;21.20;99.90;;;;;;5023060;28;20026;-66
2023/09/10 07:10:33;;;;;;;4.70;2.28;;;21.30;99.90;;;;;;5031160;28;20139;-66
2023/09/10 07:12:59;;;;;;;2.10;1.55;;;21.40;99.90;;;;;;5034768;28;20037;-70
2023/09/10 07:15:25;;;;;;;2.28;1.10;;;21.50;99.90;;;;;;5028354;28;20056;-66
2023/09/10 07:17:51;;;;;;;3.20;1.73;;;21.70;99.90;;;;;;5038353;28;20118;-66
2023/09/10 07:20:17;;;;;;;1.17;0.98;;;21.80;99.90;;;;;;5036017;28;20033;-67
2023/09/10 07:22:42;;;;;;;2.37;1.47;;;22.00;99.90;;;;;;5031509;28;20025;-67
2023/09/10 07:25:08;;;;;;;3.57;2.17;;;22.10;99.90;;;;;;5024981;28;20123;-67
2023/09/10 07:27:34;;;;;;;2.65;1.00;;;22.30;99.90;;;;;;5035416;28;20328;-66
2023/09/10 07:30:00;;;;;;;0.73;0.73;;;22.40;99.90;;;;;;5036612;28;20029;-67
2023/09/10 07:32:25;;;;;;;3.00;2.27;;;22.50;99.90;;;;;;5023224;28;20029;-67
2023/09/10 07:34:51;;;;;;;3.73;2.07;;;22.70;99.90;;;;;;5039925;28;20021;-67
2023/09/10 07:37:17;;;;;;;1.20;1.10;;;22.90;99.90;;;;;;5040085;28;20025;-67
2023/09/10 07:39:43;;;;;;;5.68;1.75;;;23.10;99.90;;;;;;5032855;28;20104;-68
2023/09/10 07:42:09;;;;;;;1.13;1.00;;;23.30;99.90;;;;;;5023370;28;20097;-66
2023/09/10 07:44:34;;;;;;;4.40;1.85;;;23.40;99.90;;;;;;5020533;28;20104;-66
2023/09/10 07:47:00;;;;;;;1.93;1.77;;;23.60;99.90;;;;;;5025798;28;20036;-66
2023/09/10 07:49:26;;;;;;;1.63;1.50;;;23.70;99.90;;;;;;5031895;28;20326;-67
2023/09/10 07:51:51;;;;;;;2.43;1.70;;;23.90;99.90;;;;;;5033216;28;21235;-67
2023/09/10 07:54:17;;;;;;;6.87;1.60;;;24.10;99.90;;;;;;5030738;28;20585;-66
2023/09/10 07:56:45;;;;;;;2.70;2.00;;;24.20;99.90;;;;;;5026513;28;20041;-73
2023/09/10 07:59:11;;;;;;;3.17;1.48;;;24.40;99.90;;;;;;5032516;28;20120;-67
2023/09/10 08:01:38;;;;;;;1.92;1.75;;;24.50;99.90;;;;;;5025471;28;20116;-67
2023/09/10 08:04:04;;;;;;;1.25;0.85;;;24.70;99.90;;;;;;5024751;28;20049;-67
2023/09/10 08:06:30;;;;;;;3.85;3.08;;;24.90;99.90;;;;;;5032440;28;20025;-67
2023/09/10 08:08:56;;;;;;;2.50;1.50;;;25.00;99.90;;;;;;5031811;28;20025;-67
2023/09/10 08:11:21;;;;;;;1.07;1.00;;;25.10;99.90;;;;;;5032190;28;20075;-66
2023/09/10 08:13:47;;;;;;;2.53;2.07;;;25.20;99.90;;;;;;5031625;28;20278;-73
2023/09/10 08:16:14;;;;;;;2.17;1.30;;;25.30;99.90;;;;;;5029552;28;20325;-67
2023/09/10 08:18:41;;;;;;;7.43;1.60;;;25.50;99.90;;;;;;5032159;28;20032;-66
2023/09/10 08:21:07;;;;;;;2.90;2.15;;;25.60;99.90;;;;;;5039928;28;20017;-67
2023/09/10 08:23:33;;;;;;;4.07;1.67;;;25.80;99.90;;;;;;5026516;28;20026;-66
2023/09/10 08:25:58;;;;;;;2.58;1.73;;;25.80;99.90;;;;;;5032167;28;20068;-66
2023/09/10 08:28:24;;;;;;;3.10;2.08;;;26.00;99.90;;;;;;5031259;28;20029;-67
2023/09/10 08:30:51;;;;;;;2.00;1.30;;;26.10;99.90;;;;;;5031210;28;20037;-67
2023/09/10 08:33:17;;;;;;;2.60;2.40;;;26.20;99.90;;;;;;5030842;28;20029;-76
2023/09/10 08:35:50;;;;;;;1.60;1.38;;;26.30;99.90;;;;;;5029518;28;20044;-67
2023/09/10 08:38:16;;;;;;;2.10;1.90;;;26.40;99.90;;;;;;5035201;28;20475;-67
2023/09/10 08:41:00;;;;;;;2.00;1.65;;;26.40;99.90;;;;;;5033556;28;20025;-68
2023/09/10 08:43:45;;;;;;;2.00;1.08;;;26.50;99.90;;;;;;5035341;28;20030;-68
2023/09/10 08:46:12;;;;;;;0.90;0.80;;;26.70;99.90;;;;;;5036010;28;20103;-67
2023/09/10 08:48:41;;;;;;;4.25;0.75;;;26.70;99.90;;;;;;5034232;28;20017;-67
2023/09/10 08:51:09;;;;;;;2.63;1.60;;;26.80;99.90;;;;;;5035634;28;20478;-75
2023/09/10 08:53:39;;;;;;;1.40;1.30;;;26.90;99.90;;;;;;5033933;28;20335;-67
2023/09/10 08:56:07;;;;;;;1.80;1.55;;;27.00;99.90;;;;;;5031517;28;20498;-68
2023/09/10 08:58:38;;;;;;;2.35;1.42;;;27.10;99.90;;;;;;5033445;28;20087;-67
2023/09/10 09:01:04;;;;;;;1.48;1.33;;;27.10;99.90;;;;;;5041542;28;20029;-67
2023/09/10 09:03:30;;;;;;;2.75;2.05;;;27.10;99.90;;;;;;5034549;28;20056;-67
2023/09/10 09:06:03;;;;;;;;;;;27.20;99.90;;;;;;5027055;28;20061;-67
2023/09/10 09:08:31;;;;;;;1.55;0.88;;;27.30;99.90;;;;;;5043065;28;19919;-67
2023/09/10 09:11:01;;;;;;;2.53;2.33;;;27.40;99.90;;;;;;5045973;28;20036;-67
2023/09/10 09:13:28;;;;;;;2.20;1.38;;;27.50;99.90;;;;;;5044027;28;20052;-67
2023/09/10 09:15:55;;;;;;;1.70;1.60;;;27.60;99.90;;;;;;5026227;28;20028;-69
2023/09/10 09:18:22;;;;;;;4.03;1.00;;;27.70;99.90;;;;;;5043049;28;20315;-68
2023/09/10 09:20:50;;;;;;;;;;;27.80;99.90;;;;;;5035776;28;20137;-67
2023/09/10 09:23:21;;;;;;;4.45;1.95;;;27.90;99.90;;;;;;5040401;28;19951;-68
2023/09/10 09:25:47;;;;;;;2.30;1.52;;;28.00;99.90;;;;;;5032640;28;20049;-67
2023/09/10 09:28:13;;;;;;;1.05;1.05;;;28.00;99.90;;;;;;5041145;28;20116;-68
2023/09/10 09:30:39;;;;;;;4.30;1.85;;;28.20;99.90;;;;;;5033224;28;20066;-76
2023/09/10 09:33:05;;;;;;;1.45;1.35;;;28.20;99.90;;;;;;5035930;28;20378;-68
2023/09/10 09:35:34;;;;;;;1.20;1.10;;;28.20;99.90;;;;;;5033753;28;20033;-68
2023/09/10 09:38:10;;;;;;;5.57;2.50;;;28.30;99.90;;;;;;5042024;28;20109;-68
2023/09/10 09:40:36;;;;;;;0.82;0.82;;;28.30;99.90;;;;;;5033908;28;20112;-67
2023/09/10 09:43:02;;;;;;;;;;;28.40;99.90;;;;;;5037982;28;20022;-71
2023/09/10 09:45:29;;;;;;;1.58;0.95;;;28.40;99.90;;;;;;5031772;28;19905;-67
2023/09/10 09:47:55;;;;;;;1.52;0.98;;;28.50;99.90;;;;;;5033333;28;20423;-67
2023/09/10 09:50:21;;;;;;;1.67;1.58;;;28.60;99.90;;;;;;5042111;28;20033;-67
2023/09/10 09:52:54;;;;;;;0.98;0.82;;;28.70;99.90;;;;;;5039099;28;20037;-67
2023/09/10 09:55:20;;;;;;;0.60;0.47;;;28.80;99.90;;;;;;5043329;28;20044;-69
2023/09/10 09:57:46;;;;;;;1.98;1.63;;;28.90;99.90;;;;;;5036458;28;20022;-67
2023/09/10 10:00:13;;;;;;;1.20;0.98;;;29.00;99.90;;;;;;5030542;28;20032;-67
2023/09/10 10:02:38;;;;;;;;;;;29.10;99.90;;;;;;5035234;28;20036;-76
2023/09/10 10:05:07;;;;;;;1.45;1.23;;;29.20;99.90;;;;;;5032261;28;19917;-67
2023/09/10 10:07:35;;;;;;;1.38;1.02;;;29.20;99.90;;;;;;5032881;28;20433;-67
2023/09/10 10:10:01;;;;;;;3.03;1.80;;;29.20;99.90;;;;;;5033810;28;20040;-67
2023/09/10 10:12:27;;;;;;;6.03;1.00;;;29.30;99.90;;;;;;5031822;28;20037;-68
2023/09/10 10:14:56;;;;;;;1.83;1.15;;;29.40;99.90;;;;;;5035459;28;20086;-67
2023/09/10 10:17:23;;;;;;;2.10;1.52;;;29.50;99.90;;;;;;5038171;28;20022;-67
2023/09/10 10:19:50;;;;;;;1.23;0.85;;;29.70;99.90;;;;;;5034950;28;20028;-68
2023/09/10 10:22:16;;;;;;;2.05;1.60;;;29.80;99.90;;;;;;5035268;28;20034;-68
2023/09/10 10:24:42;;;;;;;1.02;0.60;;;29.80;99.90;;;;;;5027481;28;20021;-67
2023/09/10 10:27:08;;;;;;;6.43;1.20;;;29.80;99.90;;;;;;5039406;28;20407;-68
2023/09/10 10:29:35;;;;;;;3.13;1.92;;;29.80;99.90;;;;;;5040091;28;20502;-67
2023/09/10 10:32:02;;;;;;;0.93;0.93;;;29.80;99.90;;;;;;5033404;28;20033;-67
2023/09/10 10:34:35;;;;;;;1.05;0.60;;;29.80;99.90;;;;;;5036109;28;20140;-67
2023/09/10 10:37:19;;;;;;;1.63;1.05;;;29.80;99.90;;;;;;5030219;28;20033;-67
2023/09/10 10:40:11;;;;;;;0.75;0.75;;;29.80;99.90;;;;;;5027131;28;20029;-68
2023/09/10 10:42:52;;;;;;;3.70;1.88;;;29.80;99.90;;;;;;5034745;28;20025;-68
2023/09/10 10:45:19;;;;;;;0.77;0.77;;;29.90;99.90;;;;;;5021462;28;20035;-76
2023/09/10 10:47:47;;;;;;;0.77;0.77;;;29.90;99.90;;;;;;5029267;28;20028;-68
2023/09/10 10:50:25;;;;;;;5.15;1.55;;;30.10;99.90;;;;;;5034489;28;20041;-67
2023/09/10 10:53:06;;;;;;;2.50;1.00;;;30.20;99.90;;;;;;5034959;28;20025;-75
2023/09/10 10:55:33;;;;;;;1.65;0.52;;;30.30;99.90;;;;;;5032197;28;20512;-67
2023/09/10 10:58:00;;;;;;;2.20;0.60;;;30.30;99.90;;;;;;5030276;28;20029;-68
2023/09/10 11:00:26;;;;;;;1.55;0.77;;;30.20;99.90;;;;;;5040801;28;20030;-68
2023/09/10 11:03:09;;;;;;;;;;;30.10;99.90;;;;;;5029793;28;20108;-68
2023/09/10 11:05:53;;;;;;;3.55;1.35;;;30.10;99.90;;;;;;5031990;28;20303;-68
2023/09/10 11:08:29;;;;;;;3.78;0.88;;;30.20;99.90;;;;;;5035294;28;20324;-68
2023/09/10 11:10:55;;;;;;;0.65;0.50;;;30.30;99.90;;;;;;5036404;28;21047;-75
2023/09/10 11:13:24;;;;;;;;;;;30.40;99.90;;;;;;5041223;28;20044;-68
2023/09/10 11:16:04;;;;;;;1.00;0.93;;;30.50;99.90;;;;;;5025306;28;19913;-68
2023/09/10 11:18:36;;;;;;;1.35;1.05;;;30.60;99.90;;;;;;5030649;28;20091;-68
2023/09/10 11:21:05;;;;;;;0.85;0.85;;;30.70;99.90;;;;;;5031361;28;20294;-68
2023/09/10 11:23:31;;;;;;;1.58;1.17;;;30.70;99.90;;;;;;5028514;28;20159;-67
2023/09/10 11:26:12;;;;;;;0.73;0.73;;;30.80;99.90;;;;;;5030745;28;20102;-68
2023/09/10 11:28:55;;;;;;;0.88;0.82;;;30.80;99.90;;;;;;5030344;28;20116;-68
2023/09/10 11:31:48;;;;;;;0.52;0.52;;;30.80;99.90;;;;;;5032949;28;20436;-68
2023/09/10 11:34:17;;;;;;;1.45;0.85;;;30.80;99.90;;;;;;5026907;28;20100;-68
2023/09/10 11:36:50;;;;;;;0.60;0.60;;;30.80;99.90;;;;;;5031523;28;20321;-68
2023/09/10 11:39:19;;;;;;;1.88;1.13;;;30.90;99.90;;;;;;5031395;28;20033;-68
2023/09/10 11:41:51;;;;;;;0.98;0.93;;;30.90;99.90;;;;;;5032489;28;20437;-68
2023/09/10 11:44:16;;;;;;;0.65;0.43;;;31.00;99.90;;;;;;5044455;28;20024;-68
2023/09/10 11:46:43;;;;;;;1.15;1.05;;;30.90;99.90;;;;;;5029296;28;20244;-68
2023/09/10 11:49:09;;;;;;;1.10;1.00;;;30.90;99.90;;;;;;5035306;28;20116;-67
2023/09/10 11:51:46;;;;;;;0.73;0.60;;;30.90;99.90;;;;;;5033645;28;20101;-67
2023/09/10 11:54:18;;;;;;;1.02;0.88;;;30.90;99.90;;;;;;5030340;28;20034;-67
2023/09/10 11:56:48;;;;;;;3.10;1.55;;;30.80;99.90;;;;;;5034711;28;20033;-68
2023/09/10 11:59:15;;;;;;;2.03;1.27;;;30.70;99.90;;;;;;5033399;28;20081;-68
2023/09/10 12:01:41;;;;;;;0.90;0.50;;;30.80;99.90;;;;;;5026502;28;20033;-67
2023/09/10 12:04:07;;;;;;;;;;;30.90;99.90;;;;;;5021659;28;20050;-68
2023/09/10 12:06:32;;;;;;;2.45;1.05;;;30.90;99.90;;;;;;5029047;28;19952;-68
2023/09/10 12:08:58;;;;;;;0.82;0.60;;;30.90;99.90;;;;;;5025384;28;20100;-68
2023/09/10 12:11:24;;;;;;;0.40;0.40;;;30.90;99.90;;;;;;5033711;28;20400;-68
2023/09/10 12:13:51;;;;;;;0.77;0.77;;;31.00;99.90;;;;;;5033857;28;20128;-75
2023/09/10 12:16:17;;;;;;;0.90;0.50;;;31.00;99.90;;;;;;5035618;28;20028;-68
2023/09/10 12:18:44;;;;;;;1.25;1.15;;;30.90;99.90;;;;;;5037998;28;20025;-67
2023/09/10 12:21:14;;;;;;;0.57;0.57;;;31.00;99.90;;;;;;5031437;28;20057;-68
2023/09/10 12:23:43;;;;;;;1.33;1.23;;;31.00;99.90;;;;;;5036846;28;20036;-68
2023/09/10 12:26:10;;;;;;;0.70;0.65;;;31.10;99.90;;;;;;5027702;28;20050;-68
2023/09/10 12:28:36;;;;;;;2.40;0.73;;;31.00;99.90;;;;;;5034560;28;20479;-68
2023/09/10 12:31:02;;;;;;;0.75;0.75;;;31.00;99.90;;;;;;5035063;28;20057;-77
2023/09/10 12:33:28;;;;;;;0.90;0.90;;;31.00;99.90;;;;;;5033098;28;20061;-68
2023/09/10 12:35:55;;;;;;;5.30;1.58;;;31.00;99.90;;;;;;5039243;28;20033;-68
2023/09/10 12:38:21;;;;;;;1.15;0.88;;;31.10;99.90;;;;;;5039283;28;20031;-68
2023/09/10 12:40:50;;;;;;;1.02;0.70;;;31.10;99.90;;;;;;5040936;28;20108;-75
2023/09/10 12:43:19;;;;;;;1.55;0.90;;;31.10;99.90;;;;;;5034092;28;20056;-68
2023/09/10 12:45:49;;;;;;;0.65;0.65;;;31.10;99.90;;;;;;5030339;28;20034;-68
2023/09/10 12:48:17;;;;;;;1.73;1.15;;;31.10;99.90;;;;;;5033522;28;20195;-68
2023/09/10 12:50:47;;;;;;;1.95;1.15;;;31.20;99.90;;;;;;5028086;28;20041;-68
2023/09/10 12:53:13;;;;;;;0.63;0.60;;;31.30;99.90;;;;;;5035211;28;20163;-68